sensor_id;sensor_type;location;lat;lon;timestamp;P1;durP1;ratioP1;P2;durP2;ratioP2
44169;SDS011;29836;52.286;9.576;2023-08-07T00:01:47;30.85;;;14.98;;
44169;SDS011;29836;52.286;9.576;2023-08-07T00:04:12;24.77;;;14.43;;
44169;SDS011;29836;52.286;9.576;2023-08-07T00:06:38;23.95;;;15.15;;
44169;SDS011;29836;52.286;9.576;2023-08-07T00:09:04;29.38;;;14.63;;
44169;SDS011;29836;52.286;9.576;2023-08-07T00:11:29;25.17;;;14.30;;
44169;SDS011;29836;52.286;9.576;2023-08-07T00:13:55;25.55;;;13.80;;
44169;SDS011;29836;52.286;9.576;2023-08-07T00:16:20;25.55;;;13.40;;
44169;SDS011;29836;52.286;9.576;2023-08-07T00:18:46;27.50;;;14.13;;
44169;SDS011;29836;52.286;9.576;2023-08-07T00:21:12;22.17;;;13.48;;
44169;SDS011;29836;52.286;9.576;2023-08-07T00:23:37;24.08;;;13.35;;
44169;SDS011;29836;52.286;9.576;2023-08-07T00:26:03;26.40;;;14.38;;
44169;SDS011;29836;52.286;9.576;2023-08-07T00:28:28;29.02;;;14.68;;
44169;SDS011;29836;52.286;9.576;2023-08-07T00:30:54;31.05;;;14.20;;
44169;SDS011;29836;52.286;9.576;2023-08-07T00:33:20;27.05;;;14.55;;
44169;SDS011;29836;52.286;9.576;2023-08-07T00:35:46;24.42;;;13.80;;
44169;SDS011;29836;52.286;9.576;2023-08-07T00:38:11;24.55;;;13.60;;
44169;SDS011;29836;52.286;9.576;2023-08-07T00:40:40;25.67;;;12.65;;
44169;SDS011;29836;52.286;9.576;2023-08-07T00:43:06;23.90;;;12.70;;
44169;SDS011;29836;52.286;9.576;2023-08-07T00:45:36;24.85;;;13.13;;
44169;SDS011;29836;52.286;9.576;2023-08-07T00:48:06;26.38;;;13.63;;
44169;SDS011;29836;52.286;9.576;2023-08-07T00:50:32;23.85;;;14.05;;
44169;SDS011;29836;52.286;9.576;2023-08-07T00:52:58;26.40;;;13.82;;
44169;SDS011;29836;52.286;9.576;2023-08-07T00:55:24;29.75;;;14.43;;
44169;SDS011;29836;52.286;9.576;2023-08-07T00:57:50;24.63;;;14.43;;
44169;SDS011;29836;52.286;9.576;2023-08-07T01:00:16;25.90;;;14.48;;
44169;SDS011;29836;52.286;9.576;2023-08-07T01:02:42;26.65;;;13.18;;
44169;SDS011;29836;52.286;9.576;2023-08-07T01:05:09;25.95;;;13.50;;
44169;SDS011;29836;52.286;9.576;2023-08-07T01:07:34;23.85;;;13.43;;
44169;SDS011;29836;52.286;9.576;2023-08-07T01:10:00;24.58;;;12.88;;
44169;SDS011;29836;52.286;9.576;2023-08-07T01:12:33;25.83;;;12.65;;
44169;SDS011;29836;52.286;9.576;2023-08-07T01:15:14;22.67;;;12.57;;
44169;SDS011;29836;52.286;9.576;2023-08-07T01:17:47;23.67;;;12.68;;
44169;SDS011;29836;52.286;9.576;2023-08-07T01:20:14;23.88;;;12.27;;
44169;SDS011;29836;52.286;9.576;2023-08-07T01:22:40;24.02;;;12.77;;
44169;SDS011;29836;52.286;9.576;2023-08-07T01:25:06;24.98;;;13.65;;
44169;SDS011;29836;52.286;9.576;2023-08-07T01:27:34;19.08;;;11.82;;
44169;SDS011;29836;52.286;9.576;2023-08-07T01:35:04;22.67;;;10.82;;
44169;SDS011;29836;52.286;9.576;2023-08-07T01:37:33;21.77;;;11.85;;
44169;SDS011;29836;52.286;9.576;2023-08-07T01:40:04;22.67;;;12.10;;
44169;SDS011;29836;52.286;9.576;2023-08-07T01:42:31;21.45;;;11.80;;
44169;SDS011;29836;52.286;9.576;2023-08-07T01:44:57;20.52;;;11.43;;
44169;SDS011;29836;52.286;9.576;2023-08-07T01:47:23;19.38;;;10.85;;
44169;SDS011;29836;52.286;9.576;2023-08-07T01:49:48;26.40;;;11.43;;
44169;SDS011;29836;52.286;9.576;2023-08-07T01:52:14;19.48;;;11.32;;
44169;SDS011;29836;52.286;9.576;2023-08-07T01:54:40;17.92;;;11.00;;
44169;SDS011;29836;52.286;9.576;2023-08-07T01:57:05;21.63;;;11.88;;
44169;SDS011;29836;52.286;9.576;2023-08-07T01:59:31;17.75;;;10.48;;
44169;SDS011;29836;52.286;9.576;2023-08-07T02:01:57;16.27;;;10.20;;
44169;SDS011;29836;52.286;9.576;2023-08-07T02:04:22;20.17;;;9.77;;
44169;SDS011;29836;52.286;9.576;2023-08-07T02:06:48;21.52;;;9.82;;
44169;SDS011;29836;52.286;9.576;2023-08-07T02:09:13;20.55;;;10.18;;
44169;SDS011;29836;52.286;9.576;2023-08-07T02:11:39;15.13;;;9.50;;
44169;SDS011;29836;52.286;9.576;2023-08-07T02:14:04;18.98;;;9.43;;
44169;SDS011;29836;52.286;9.576;2023-08-07T02:16:30;24.60;;;9.95;;
44169;SDS011;29836;52.286;9.576;2023-08-07T02:18:56;14.77;;;8.25;;
44169;SDS011;29836;52.286;9.576;2023-08-07T02:21:21;17.33;;;8.65;;
44169;SDS011;29836;52.286;9.576;2023-08-07T02:23:47;16.98;;;8.43;;
44169;SDS011;29836;52.286;9.576;2023-08-07T02:26:12;12.70;;;7.55;;
44169;SDS011;29836;52.286;9.576;2023-08-07T02:28:38;13.60;;;7.13;;
44169;SDS011;29836;52.286;9.576;2023-08-07T02:31:03;17.55;;;7.28;;
44169;SDS011;29836;52.286;9.576;2023-08-07T02:33:29;13.10;;;7.15;;
44169;SDS011;29836;52.286;9.576;2023-08-07T02:35:55;12.50;;;6.40;;
44169;SDS011;29836;52.286;9.576;2023-08-07T02:38:21;11.52;;;6.85;;
44169;SDS011;29836;52.286;9.576;2023-08-07T02:40:47;14.13;;;7.25;;
44169;SDS011;29836;52.286;9.576;2023-08-07T02:43:12;9.20;;;6.07;;
44169;SDS011;29836;52.286;9.576;2023-08-07T02:45:38;12.38;;;6.75;;
44169;SDS011;29836;52.286;9.576;2023-08-07T02:48:03;13.40;;;5.72;;
44169;SDS011;29836;52.286;9.576;2023-08-07T02:50:30;11.98;;;5.35;;
44169;SDS011;29836;52.286;9.576;2023-08-07T02:52:57;9.93;;;4.97;;
44169;SDS011;29836;52.286;9.576;2023-08-07T02:55:26;9.75;;;5.65;;
44169;SDS011;29836;52.286;9.576;2023-08-07T02:57:52;12.65;;;5.65;;
44169;SDS011;29836;52.286;9.576;2023-08-07T03:00:18;10.32;;;5.35;;
44169;SDS011;29836;52.286;9.576;2023-08-07T03:02:43;10.63;;;5.90;;
44169;SDS011;29836;52.286;9.576;2023-08-07T03:05:09;12.90;;;7.00;;
44169;SDS011;29836;52.286;9.576;2023-08-07T03:07:35;13.90;;;8.15;;
44169;SDS011;29836;52.286;9.576;2023-08-07T03:10:00;15.80;;;7.97;;
44169;SDS011;29836;52.286;9.576;2023-08-07T03:12:27;17.13;;;8.88;;
44169;SDS011;29836;52.286;9.576;2023-08-07T03:14:52;18.05;;;9.40;;
44169;SDS011;29836;52.286;9.576;2023-08-07T03:17:18;18.90;;;8.85;;
44169;SDS011;29836;52.286;9.576;2023-08-07T03:19:45;16.95;;;8.93;;
44169;SDS011;29836;52.286;9.576;2023-08-07T03:22:11;14.48;;;8.98;;
44169;SDS011;29836;52.286;9.576;2023-08-07T03:24:37;16.60;;;8.63;;
44169;SDS011;29836;52.286;9.576;2023-08-07T03:27:03;21.13;;;9.70;;
44169;SDS011;29836;52.286;9.576;2023-08-07T03:29:28;20.25;;;9.73;;
44169;SDS011;29836;52.286;9.576;2023-08-07T03:31:54;15.88;;;9.70;;
44169;SDS011;29836;52.286;9.576;2023-08-07T03:34:19;24.08;;;10.07;;
44169;SDS011;29836;52.286;9.576;2023-08-07T03:36:45;17.98;;;9.30;;
44169;SDS011;29836;52.286;9.576;2023-08-07T03:39:11;15.88;;;9.10;;
44169;SDS011;29836;52.286;9.576;2023-08-07T03:41:37;13.90;;;8.98;;
44169;SDS011;29836;52.286;9.576;2023-08-07T03:44:03;21.38;;;9.38;;
44169;SDS011;29836;52.286;9.576;2023-08-07T03:46:28;19.83;;;9.20;;
44169;SDS011;29836;52.286;9.576;2023-08-07T03:48:54;17.00;;;9.10;;
44169;SDS011;29836;52.286;9.576;2023-08-07T03:51:19;15.52;;;9.38;;
44169;SDS011;29836;52.286;9.576;2023-08-07T03:53:45;18.88;;;9.30;;
44169;SDS011;29836;52.286;9.576;2023-08-07T03:56:11;16.20;;;9.48;;
44169;SDS011;29836;52.286;9.576;2023-08-07T03:58:36;19.85;;;10.02;;
44169;SDS011;29836;52.286;9.576;2023-08-07T04:01:02;20.55;;;8.88;;
44169;SDS011;29836;52.286;9.576;2023-08-07T04:03:27;15.23;;;8.65;;
44169;SDS011;29836;52.286;9.576;2023-08-07T04:05:53;17.52;;;9.60;;
44169;SDS011;29836;52.286;9.576;2023-08-07T04:08:20;16.23;;;9.20;;
44169;SDS011;29836;52.286;9.576;2023-08-07T04:10:57;18.88;;;9.13;;
44169;SDS011;29836;52.286;9.576;2023-08-07T04:13:24;17.80;;;9.50;;
44169;SDS011;29836;52.286;9.576;2023-08-07T04:15:49;12.98;;;7.50;;
44169;SDS011;29836;52.286;9.576;2023-08-07T04:18:15;17.95;;;8.88;;
44169;SDS011;29836;52.286;9.576;2023-08-07T04:20:40;16.17;;;9.05;;
44169;SDS011;29836;52.286;9.576;2023-08-07T04:23:06;15.95;;;8.60;;
44169;SDS011;29836;52.286;9.576;2023-08-07T04:25:31;15.60;;;8.95;;
44169;SDS011;29836;52.286;9.576;2023-08-07T04:27:57;17.58;;;9.40;;
44169;SDS011;29836;52.286;9.576;2023-08-07T04:30:22;15.75;;;8.60;;
44169;SDS011;29836;52.286;9.576;2023-08-07T04:32:48;14.38;;;8.45;;
44169;SDS011;29836;52.286;9.576;2023-08-07T04:35:14;14.95;;;8.25;;
44169;SDS011;29836;52.286;9.576;2023-08-07T04:37:39;12.07;;;7.30;;
44169;SDS011;29836;52.286;9.576;2023-08-07T04:40:05;14.65;;;8.30;;
44169;SDS011;29836;52.286;9.576;2023-08-07T04:42:33;13.02;;;8.60;;
44169;SDS011;29836;52.286;9.576;2023-08-07T04:44:59;16.17;;;9.73;;
44169;SDS011;29836;52.286;9.576;2023-08-07T04:47:24;15.70;;;9.38;;
44169;SDS011;29836;52.286;9.576;2023-08-07T04:49:50;16.33;;;9.85;;
44169;SDS011;29836;52.286;9.576;2023-08-07T04:52:16;20.52;;;9.90;;
44169;SDS011;29836;52.286;9.576;2023-08-07T04:54:41;18.00;;;9.43;;
44169;SDS011;29836;52.286;9.576;2023-08-07T04:57:07;17.35;;;9.88;;
44169;SDS011;29836;52.286;9.576;2023-08-07T04:59:32;15.95;;;9.85;;
44169;SDS011;29836;52.286;9.576;2023-08-07T05:01:58;19.63;;;10.05;;
44169;SDS011;29836;52.286;9.576;2023-08-07T05:04:23;21.23;;;10.55;;
44169;SDS011;29836;52.286;9.576;2023-08-07T05:06:49;16.25;;;9.50;;
44169;SDS011;29836;52.286;9.576;2023-08-07T05:09:14;17.35;;;9.75;;
44169;SDS011;29836;52.286;9.576;2023-08-07T05:11:40;18.83;;;9.15;;
44169;SDS011;29836;52.286;9.576;2023-08-07T05:14:05;18.10;;;8.13;;
44169;SDS011;29836;52.286;9.576;2023-08-07T05:16:31;13.07;;;7.78;;
44169;SDS011;29836;52.286;9.576;2023-08-07T05:18:56;12.48;;;7.93;;
44169;SDS011;29836;52.286;9.576;2023-08-07T05:21:22;12.90;;;7.95;;
44169;SDS011;29836;52.286;9.576;2023-08-07T05:23:47;13.65;;;7.85;;
44169;SDS011;29836;52.286;9.576;2023-08-07T05:26:13;13.77;;;8.10;;
44169;SDS011;29836;52.286;9.576;2023-08-07T05:28:38;16.45;;;7.63;;
44169;SDS011;29836;52.286;9.576;2023-08-07T05:31:04;14.52;;;7.43;;
44169;SDS011;29836;52.286;9.576;2023-08-07T05:33:29;10.95;;;7.28;;
44169;SDS011;29836;52.286;9.576;2023-08-07T05:35:55;11.85;;;6.65;;
44169;SDS011;29836;52.286;9.576;2023-08-07T05:38:20;14.57;;;6.20;;
44169;SDS011;29836;52.286;9.576;2023-08-07T05:40:46;12.65;;;6.85;;
44169;SDS011;29836;52.286;9.576;2023-08-07T05:43:11;12.32;;;6.10;;
44169;SDS011;29836;52.286;9.576;2023-08-07T05:45:37;10.52;;;6.78;;
44169;SDS011;29836;52.286;9.576;2023-08-07T05:48:03;11.23;;;6.30;;
44169;SDS011;29836;52.286;9.576;2023-08-07T05:50:29;12.05;;;6.32;;
44169;SDS011;29836;52.286;9.576;2023-08-07T05:52:54;12.63;;;5.93;;
44169;SDS011;29836;52.286;9.576;2023-08-07T05:55:20;11.38;;;6.35;;
44169;SDS011;29836;52.286;9.576;2023-08-07T05:57:46;9.90;;;5.63;;
44169;SDS011;29836;52.286;9.576;2023-08-07T06:00:12;8.27;;;5.18;;
44169;SDS011;29836;52.286;9.576;2023-08-07T06:02:41;7.80;;;5.43;;
44169;SDS011;29836;52.286;9.576;2023-08-07T06:05:07;9.45;;;5.13;;
44169;SDS011;29836;52.286;9.576;2023-08-07T06:07:34;9.40;;;5.07;;
44169;SDS011;29836;52.286;9.576;2023-08-07T06:10:00;9.57;;;4.80;;
44169;SDS011;29836;52.286;9.576;2023-08-07T06:12:25;11.45;;;4.82;;
44169;SDS011;29836;52.286;9.576;2023-08-07T06:14:51;9.23;;;4.53;;
44169;SDS011;29836;52.286;9.576;2023-08-07T06:17:16;8.05;;;4.38;;
44169;SDS011;29836;52.286;9.576;2023-08-07T06:19:42;7.70;;;4.93;;
44169;SDS011;29836;52.286;9.576;2023-08-07T06:22:07;7.50;;;4.88;;
44169;SDS011;29836;52.286;9.576;2023-08-07T06:24:33;8.63;;;4.00;;
44169;SDS011;29836;52.286;9.576;2023-08-07T06:26:58;7.25;;;4.03;;
44169;SDS011;29836;52.286;9.576;2023-08-07T06:29:24;5.72;;;3.85;;
44169;SDS011;29836;52.286;9.576;2023-08-07T06:31:50;9.75;;;4.18;;
44169;SDS011;29836;52.286;9.576;2023-08-07T06:34:15;5.88;;;3.60;;
44169;SDS011;29836;52.286;9.576;2023-08-07T06:36:41;6.43;;;3.80;;
44169;SDS011;29836;52.286;9.576;2023-08-07T06:39:06;6.15;;;3.80;;
44169;SDS011;29836;52.286;9.576;2023-08-07T06:41:32;6.95;;;3.70;;
44169;SDS011;29836;52.286;9.576;2023-08-07T06:43:57;7.30;;;4.35;;
44169;SDS011;29836;52.286;9.576;2023-08-07T06:46:23;5.93;;;3.67;;
44169;SDS011;29836;52.286;9.576;2023-08-07T06:48:51;5.80;;;3.40;;
44169;SDS011;29836;52.286;9.576;2023-08-07T06:51:17;6.60;;;3.70;;
44169;SDS011;29836;52.286;9.576;2023-08-07T06:53:42;5.00;;;3.17;;
44169;SDS011;29836;52.286;9.576;2023-08-07T06:56:08;7.03;;;3.42;;
44169;SDS011;29836;52.286;9.576;2023-08-07T06:58:33;7.22;;;3.33;;
44169;SDS011;29836;52.286;9.576;2023-08-07T07:00:59;5.30;;;3.22;;
44169;SDS011;29836;52.286;9.576;2023-08-07T07:03:25;8.57;;;3.53;;
44169;SDS011;29836;52.286;9.576;2023-08-07T07:05:50;8.13;;;3.70;;
44169;SDS011;29836;52.286;9.576;2023-08-07T07:08:16;8.73;;;3.88;;
44169;SDS011;29836;52.286;9.576;2023-08-07T07:10:41;7.43;;;3.75;;
44169;SDS011;29836;52.286;9.576;2023-08-07T07:13:07;7.95;;;4.03;;
44169;SDS011;29836;52.286;9.576;2023-08-07T07:15:34;6.25;;;3.92;;
44169;SDS011;29836;52.286;9.576;2023-08-07T07:18:00;6.35;;;3.92;;
44169;SDS011;29836;52.286;9.576;2023-08-07T07:20:26;7.55;;;4.05;;
44169;SDS011;29836;52.286;9.576;2023-08-07T07:22:52;7.18;;;4.25;;
44169;SDS011;29836;52.286;9.576;2023-08-07T07:25:18;8.80;;;4.63;;
44169;SDS011;29836;52.286;9.576;2023-08-07T07:27:43;9.63;;;4.32;;
44169;SDS011;29836;52.286;9.576;2023-08-07T07:30:09;8.38;;;4.82;;
44169;SDS011;29836;52.286;9.576;2023-08-07T07:32:35;6.93;;;4.25;;
44169;SDS011;29836;52.286;9.576;2023-08-07T07:35:01;7.15;;;5.00;;
44169;SDS011;29836;52.286;9.576;2023-08-07T07:37:26;9.38;;;5.03;;
44169;SDS011;29836;52.286;9.576;2023-08-07T07:39:52;7.93;;;5.53;;
44169;SDS011;29836;52.286;9.576;2023-08-07T07:42:18;6.82;;;5.07;;
44169;SDS011;29836;52.286;9.576;2023-08-07T07:44:43;9.02;;;5.40;;
44169;SDS011;29836;52.286;9.576;2023-08-07T07:47:09;12.02;;;4.50;;
44169;SDS011;29836;52.286;9.576;2023-08-07T07:49:34;8.63;;;4.80;;
44169;SDS011;29836;52.286;9.576;2023-08-07T07:52:00;8.85;;;4.50;;
44169;SDS011;29836;52.286;9.576;2023-08-07T07:54:25;10.75;;;4.55;;
44169;SDS011;29836;52.286;9.576;2023-08-07T07:56:53;6.97;;;4.30;;
44169;SDS011;29836;52.286;9.576;2023-08-07T07:59:18;6.78;;;3.83;;
44169;SDS011;29836;52.286;9.576;2023-08-07T08:01:44;7.10;;;3.70;;
44169;SDS011;29836;52.286;9.576;2023-08-07T08:04:09;4.90;;;3.50;;
44169;SDS011;29836;52.286;9.576;2023-08-07T08:06:35;7.13;;;3.50;;
44169;SDS011;29836;52.286;9.576;2023-08-07T08:09:00;8.38;;;3.58;;
44169;SDS011;29836;52.286;9.576;2023-08-07T08:11:29;4.45;;;3.00;;
44169;SDS011;29836;52.286;9.576;2023-08-07T08:13:55;7.53;;;3.30;;
44169;SDS011;29836;52.286;9.576;2023-08-07T08:16:20;7.28;;;2.63;;
44169;SDS011;29836;52.286;9.576;2023-08-07T08:18:46;8.13;;;2.92;;
44169;SDS011;29836;52.286;9.576;2023-08-07T08:21:12;4.50;;;2.50;;
44169;SDS011;29836;52.286;9.576;2023-08-07T08:23:38;4.75;;;2.83;;
44169;SDS011;29836;52.286;9.576;2023-08-07T08:26:03;4.55;;;2.60;;
44169;SDS011;29836;52.286;9.576;2023-08-07T08:28:29;6.63;;;3.00;;
44169;SDS011;29836;52.286;9.576;2023-08-07T08:30:55;6.80;;;3.13;;
44169;SDS011;29836;52.286;9.576;2023-08-07T08:33:20;4.43;;;2.65;;
44169;SDS011;29836;52.286;9.576;2023-08-07T08:35:46;6.05;;;2.92;;
44169;SDS011;29836;52.286;9.576;2023-08-07T08:38:11;6.18;;;3.33;;
44169;SDS011;29836;52.286;9.576;2023-08-07T08:40:37;6.82;;;2.70;;
44169;SDS011;29836;52.286;9.576;2023-08-07T08:43:04;10.38;;;2.78;;
44169;SDS011;29836;52.286;9.576;2023-08-07T08:45:30;6.13;;;3.28;;
44169;SDS011;29836;52.286;9.576;2023-08-07T08:48:03;6.50;;;3.38;;
44169;SDS011;29836;52.286;9.576;2023-08-07T08:50:29;7.75;;;3.72;;
44169;SDS011;29836;52.286;9.576;2023-08-07T08:52:56;9.20;;;4.03;;
44169;SDS011;29836;52.286;9.576;2023-08-07T08:55:22;8.27;;;3.58;;
44169;SDS011;29836;52.286;9.576;2023-08-07T08:57:48;8.10;;;3.20;;
44169;SDS011;29836;52.286;9.576;2023-08-07T09:00:15;9.27;;;3.42;;
44169;SDS011;29836;52.286;9.576;2023-08-07T09:02:46;9.90;;;3.50;;
44169;SDS011;29836;52.286;9.576;2023-08-07T09:05:17;4.20;;;2.30;;
44169;SDS011;29836;52.286;9.576;2023-08-07T09:07:44;3.70;;;1.90;;
44169;SDS011;29836;52.286;9.576;2023-08-07T09:10:12;3.67;;;1.80;;
44169;SDS011;29836;52.286;9.576;2023-08-07T09:12:50;4.47;;;1.67;;
44169;SDS011;29836;52.286;9.576;2023-08-07T09:15:21;6.32;;;2.30;;
44169;SDS011;29836;52.286;9.576;2023-08-07T09:17:49;7.15;;;2.03;;
44169;SDS011;29836;52.286;9.576;2023-08-07T09:20:17;3.63;;;1.80;;
44169;SDS011;29836;52.286;9.576;2023-08-07T09:22:44;4.32;;;2.05;;
44169;SDS011;29836;52.286;9.576;2023-08-07T09:25:10;7.70;;;1.90;;
44169;SDS011;29836;52.286;9.576;2023-08-07T09:27:38;3.50;;;2.00;;
44169;SDS011;29836;52.286;9.576;2023-08-07T09:30:08;5.43;;;1.80;;
44169;SDS011;29836;52.286;9.576;2023-08-07T09:32:34;6.63;;;2.20;;
44169;SDS011;29836;52.286;9.576;2023-08-07T09:35:02;9.65;;;2.05;;
44169;SDS011;29836;52.286;9.576;2023-08-07T09:37:29;5.60;;;2.10;;
44169;SDS011;29836;52.286;9.576;2023-08-07T09:39:55;6.20;;;2.05;;
44169;SDS011;29836;52.286;9.576;2023-08-07T09:42:20;4.82;;;1.80;;
44169;SDS011;29836;52.286;9.576;2023-08-07T09:44:46;5.15;;;2.10;;
44169;SDS011;29836;52.286;9.576;2023-08-07T09:47:17;5.50;;;1.85;;
44169;SDS011;29836;52.286;9.576;2023-08-07T09:49:43;5.10;;;1.98;;
44169;SDS011;29836;52.286;9.576;2023-08-07T09:52:10;6.13;;;1.70;;
44169;SDS011;29836;52.286;9.576;2023-08-07T09:54:38;7.78;;;2.40;;
44169;SDS011;29836;52.286;9.576;2023-08-07T09:57:04;7.30;;;2.20;;
44169;SDS011;29836;52.286;9.576;2023-08-07T09:59:31;7.32;;;2.10;;
44169;SDS011;29836;52.286;9.576;2023-08-07T10:01:57;5.40;;;2.08;;
44169;SDS011;29836;52.286;9.576;2023-08-07T10:04:26;6.07;;;2.22;;
44169;SDS011;29836;52.286;9.576;2023-08-07T10:06:52;11.70;;;2.63;;
44169;SDS011;29836;52.286;9.576;2023-08-07T10:09:18;8.15;;;2.58;;
44169;SDS011;29836;52.286;9.576;2023-08-07T10:11:45;5.50;;;1.90;;
44169;SDS011;29836;52.286;9.576;2023-08-07T10:14:14;5.80;;;2.00;;
44169;SDS011;29836;52.286;9.576;2023-08-07T10:16:40;3.40;;;1.58;;
44169;SDS011;29836;52.286;9.576;2023-08-07T10:19:06;5.50;;;2.22;;
44169;SDS011;29836;52.286;9.576;2023-08-07T10:21:33;5.95;;;2.03;;
44169;SDS011;29836;52.286;9.576;2023-08-07T10:24:00;5.68;;;1.75;;
44169;SDS011;29836;52.286;9.576;2023-08-07T10:26:29;6.97;;;1.73;;
44169;SDS011;29836;52.286;9.576;2023-08-07T10:28:57;6.82;;;1.80;;
44169;SDS011;29836;52.286;9.576;2023-08-07T10:31:26;6.38;;;2.15;;
44169;SDS011;29836;52.286;9.576;2023-08-07T10:33:53;5.88;;;1.98;;
44169;SDS011;29836;52.286;9.576;2023-08-07T10:36:19;4.35;;;1.70;;
44169;SDS011;29836;52.286;9.576;2023-08-07T10:38:45;3.72;;;1.73;;
44169;SDS011;29836;52.286;9.576;2023-08-07T10:41:15;4.15;;;1.73;;
44169;SDS011;29836;52.286;9.576;2023-08-07T10:43:43;5.20;;;1.45;;
44169;SDS011;29836;52.286;9.576;2023-08-07T10:46:19;6.10;;;2.08;;
44169;SDS011;29836;52.286;9.576;2023-08-07T10:48:46;7.85;;;1.98;;
44169;SDS011;29836;52.286;9.576;2023-08-07T10:51:18;5.25;;;1.95;;
44169;SDS011;29836;52.286;9.576;2023-08-07T10:53:45;8.25;;;2.13;;
44169;SDS011;29836;52.286;9.576;2023-08-07T10:56:16;5.82;;;1.75;;
44169;SDS011;29836;52.286;9.576;2023-08-07T10:58:47;6.70;;;2.05;;
44169;SDS011;29836;52.286;9.576;2023-08-07T11:01:19;7.82;;;2.20;;
44169;SDS011;29836;52.286;9.576;2023-08-07T11:03:52;5.95;;;1.88;;
44169;SDS011;29836;52.286;9.576;2023-08-07T11:06:40;7.82;;;2.00;;
44169;SDS011;29836;52.286;9.576;2023-08-07T11:09:06;6.00;;;1.63;;
44169;SDS011;29836;52.286;9.576;2023-08-07T11:11:37;5.47;;;1.90;;
44169;SDS011;29836;52.286;9.576;2023-08-07T11:14:07;6.32;;;1.92;;
44169;SDS011;29836;52.286;9.576;2023-08-07T11:16:37;4.95;;;1.88;;
44169;SDS011;29836;52.286;9.576;2023-08-07T11:19:03;4.70;;;1.38;;
44169;SDS011;29836;52.286;9.576;2023-08-07T11:21:30;7.15;;;1.98;;
44169;SDS011;29836;52.286;9.576;2023-08-07T11:23:56;6.40;;;1.65;;
44169;SDS011;29836;52.286;9.576;2023-08-07T11:26:22;5.95;;;1.80;;
44169;SDS011;29836;52.286;9.576;2023-08-07T11:28:49;5.90;;;1.95;;
44169;SDS011;29836;52.286;9.576;2023-08-07T11:31:16;4.30;;;1.50;;
44169;SDS011;29836;52.286;9.576;2023-08-07T11:33:43;8.18;;;1.60;;
44169;SDS011;29836;52.286;9.576;2023-08-07T11:36:12;5.60;;;1.67;;
44169;SDS011;29836;52.286;9.576;2023-08-07T11:38:39;6.88;;;1.80;;
44169;SDS011;29836;52.286;9.576;2023-08-07T11:41:10;5.95;;;1.88;;
44169;SDS011;29836;52.286;9.576;2023-08-07T11:43:37;6.75;;;1.98;;
44169;SDS011;29836;52.286;9.576;2023-08-07T11:46:03;6.25;;;1.45;;
44169;SDS011;29836;52.286;9.576;2023-08-07T11:48:33;8.68;;;1.80;;
44169;SDS011;29836;52.286;9.576;2023-08-07T11:51:00;4.25;;;1.70;;
44169;SDS011;29836;52.286;9.576;2023-08-07T11:53:31;5.82;;;1.77;;
44169;SDS011;29836;52.286;9.576;2023-08-07T11:55:59;6.97;;;1.95;;
44169;SDS011;29836;52.286;9.576;2023-08-07T11:58:28;6.63;;;1.80;;
44169;SDS011;29836;52.286;9.576;2023-08-07T12:01:05;5.75;;;1.95;;
44169;SDS011;29836;52.286;9.576;2023-08-07T12:03:38;5.22;;;1.52;;
44169;SDS011;29836;52.286;9.576;2023-08-07T12:06:06;6.82;;;1.60;;
44169;SDS011;29836;52.286;9.576;2023-08-07T12:08:41;6.25;;;1.70;;
44169;SDS011;29836;52.286;9.576;2023-08-07T12:11:11;5.20;;;1.80;;
44169;SDS011;29836;52.286;9.576;2023-08-07T12:13:38;4.38;;;1.77;;
44169;SDS011;29836;52.286;9.576;2023-08-07T12:16:05;4.03;;;1.67;;
44169;SDS011;29836;52.286;9.576;2023-08-07T12:18:31;5.03;;;1.70;;
44169;SDS011;29836;52.286;9.576;2023-08-07T12:21:00;5.32;;;1.65;;
44169;SDS011;29836;52.286;9.576;2023-08-07T12:23:27;7.13;;;2.10;;
44169;SDS011;29836;52.286;9.576;2023-08-07T12:25:53;6.38;;;2.25;;
44169;SDS011;29836;52.286;9.576;2023-08-07T12:28:19;6.60;;;1.80;;
44169;SDS011;29836;52.286;9.576;2023-08-07T12:30:45;5.72;;;1.85;;
44169;SDS011;29836;52.286;9.576;2023-08-07T12:33:14;4.60;;;1.95;;
44169;SDS011;29836;52.286;9.576;2023-08-07T12:35:40;5.85;;;1.90;;
44169;SDS011;29836;52.286;9.576;2023-08-07T12:38:06;5.38;;;1.90;;
44169;SDS011;29836;52.286;9.576;2023-08-07T12:40:33;7.22;;;1.95;;
44169;SDS011;29836;52.286;9.576;2023-08-07T12:43:01;6.30;;;2.10;;
44169;SDS011;29836;52.286;9.576;2023-08-07T12:45:27;6.25;;;1.90;;
44169;SDS011;29836;52.286;9.576;2023-08-07T12:47:52;8.35;;;2.00;;
44169;SDS011;29836;52.286;9.576;2023-08-07T12:50:18;6.30;;;1.85;;
44169;SDS011;29836;52.286;9.576;2023-08-07T12:52:44;4.68;;;1.92;;
44169;SDS011;29836;52.286;9.576;2023-08-07T12:55:09;4.35;;;1.70;;
44169;SDS011;29836;52.286;9.576;2023-08-07T12:57:36;7.22;;;2.10;;
44169;SDS011;29836;52.286;9.576;2023-08-07T13:00:02;9.02;;;2.13;;
44169;SDS011;29836;52.286;9.576;2023-08-07T13:02:29;3.58;;;1.80;;
44169;SDS011;29836;52.286;9.576;2023-08-07T13:04:55;8.27;;;2.10;;
44169;SDS011;29836;52.286;9.576;2023-08-07T13:07:22;5.45;;;1.90;;
44169;SDS011;29836;52.286;9.576;2023-08-07T13:09:47;5.30;;;1.70;;
44169;SDS011;29836;52.286;9.576;2023-08-07T13:12:13;6.78;;;1.80;;
44169;SDS011;29836;52.286;9.576;2023-08-07T13:14:38;6.93;;;2.40;;
44169;SDS011;29836;52.286;9.576;2023-08-07T13:17:04;7.95;;;1.90;;
44169;SDS011;29836;52.286;9.576;2023-08-07T13:19:30;3.85;;;1.58;;
44169;SDS011;29836;52.286;9.576;2023-08-07T13:21:55;5.13;;;1.60;;
44169;SDS011;29836;52.286;9.576;2023-08-07T13:24:21;4.45;;;1.90;;
44169;SDS011;29836;52.286;9.576;2023-08-07T13:26:46;4.88;;;1.70;;
44169;SDS011;29836;52.286;9.576;2023-08-07T13:29:12;6.72;;;1.83;;
44169;SDS011;29836;52.286;9.576;2023-08-07T13:31:37;6.07;;;1.65;;
44169;SDS011;29836;52.286;9.576;2023-08-07T13:34:03;6.07;;;1.98;;
44169;SDS011;29836;52.286;9.576;2023-08-07T13:36:36;6.63;;;1.90;;
44169;SDS011;29836;52.286;9.576;2023-08-07T13:39:03;8.50;;;2.15;;
44169;SDS011;29836;52.286;9.576;2023-08-07T13:41:29;3.20;;;1.65;;
44169;SDS011;29836;52.286;9.576;2023-08-07T13:43:54;4.53;;;1.50;;
44169;SDS011;29836;52.286;9.576;2023-08-07T13:46:20;7.90;;;1.70;;
44169;SDS011;29836;52.286;9.576;2023-08-07T13:48:46;5.57;;;1.80;;
44169;SDS011;29836;52.286;9.576;2023-08-07T13:51:11;8.27;;;2.20;;
44169;SDS011;29836;52.286;9.576;2023-08-07T13:53:37;6.75;;;1.88;;
44169;SDS011;29836;52.286;9.576;2023-08-07T13:56:02;5.35;;;1.73;;
44169;SDS011;29836;52.286;9.576;2023-08-07T13:58:28;4.82;;;1.52;;
44169;SDS011;29836;52.286;9.576;2023-08-07T14:00:55;6.45;;;1.85;;
44169;SDS011;29836;52.286;9.576;2023-08-07T14:03:21;7.45;;;1.83;;
44169;SDS011;29836;52.286;9.576;2023-08-07T14:05:47;6.03;;;1.83;;
44169;SDS011;29836;52.286;9.576;2023-08-07T14:08:13;4.43;;;1.60;;
44169;SDS011;29836;52.286;9.576;2023-08-07T14:10:39;4.97;;;1.50;;
44169;SDS011;29836;52.286;9.576;2023-08-07T14:13:05;4.05;;;1.52;;
44169;SDS011;29836;52.286;9.576;2023-08-07T14:15:31;3.75;;;1.55;;
44169;SDS011;29836;52.286;9.576;2023-08-07T14:17:57;3.88;;;1.52;;
44169;SDS011;29836;52.286;9.576;2023-08-07T14:20:22;7.28;;;1.73;;
44169;SDS011;29836;52.286;9.576;2023-08-07T14:22:49;4.05;;;1.58;;
44169;SDS011;29836;52.286;9.576;2023-08-07T14:25:15;5.65;;;1.50;;
44169;SDS011;29836;52.286;9.576;2023-08-07T14:27:41;6.55;;;1.95;;
44169;SDS011;29836;52.286;9.576;2023-08-07T14:30:07;6.15;;;1.63;;
44169;SDS011;29836;52.286;9.576;2023-08-07T14:32:32;5.22;;;1.50;;
44169;SDS011;29836;52.286;9.576;2023-08-07T14:34:58;3.78;;;1.50;;
44169;SDS011;29836;52.286;9.576;2023-08-07T14:37:24;4.78;;;1.60;;
44169;SDS011;29836;52.286;9.576;2023-08-07T14:39:49;5.30;;;1.60;;
44169;SDS011;29836;52.286;9.576;2023-08-07T14:42:15;3.78;;;1.42;;